Time;durP1;ratioP1;P1;durP2;ratioP2;P2;SDS_P1;SDS_P2;PMS_P1;PMS_P2;Temp;Humidity;BMP_temperature;BMP_pressure;BME280_temperature;BME280_humidity;BME280_pressure;Samples;Min_cycle;Max_cycle;Signal;HPM_P1;HPM_P2
2021/07/18 00:01:06;;;;;;;25.75;14.75;;;;;;;21.31;72.29;99120.31;5112672;28;20055;-77
2021/07/18 00:03:32;;;;;;;27.27;14.88;;;;;;;21.22;73.07;99122.34;5113927;28;20040;-76
2021/07/18 00:05:58;;;;;;;26.75;14.18;;;;;;;21.18;72.68;99121.06;5113645;28;20074;-79
2021/07/18 00:08:24;;;;;;;26.55;14.35;;;;;;;21.10;72.84;99127.47;5096352;28;20067;-74
2021/07/18 00:10:51;;;;;;;31.50;15.27;;;;;;;21.04;73.12;99127.44;5113324;28;20060;-74
2021/07/18 00:13:19;;;;;;;25.17;14.38;;;;;;;20.99;73.59;99122.66;5114521;28;20078;-77
2021/07/18 00:15:45;;;;;;;29.20;15.85;;;;;;;20.96;73.78;99133.81;5107074;28;20051;-75
2021/07/18 00:18:11;;;;;;;25.98;15.52;;;;;;;20.93;73.49;99126.97;5094647;28;20131;-76
2021/07/18 00:20:37;;;;;;;29.17;14.13;;;;;;;20.93;73.52;99124.28;5111886;28;20035;-79
2021/07/18 00:23:03;;;;;;;26.13;14.27;;;;;;;20.92;73.83;99128.03;5111588;28;20032;-79
2021/07/18 00:25:32;;;;;;;25.25;14.63;;;;;;;20.94;73.91;99122.44;5113943;28;20048;-73
2021/07/18 00:27:58;;;;;;;22.42;14.02;;;;;;;20.93;73.93;99115.41;5113990;28;20046;-74
2021/07/18 00:30:24;;;;;;;29.53;15.17;;;;;;;20.91;73.79;99115.59;5112685;28;20490;-77
2021/07/18 00:32:50;;;;;;;26.77;14.25;;;;;;;20.90;73.86;99121.16;5111193;28;20311;-76
2021/07/18 00:35:16;;;;;;;25.75;14.45;;;;;;;20.90;73.91;99113.09;5112545;28;20054;-74
2021/07/18 00:37:41;;;;;;;27.08;13.85;;;;;;;20.90;74.06;99113.09;5113718;28;20074;-76
2021/07/18 00:40:09;;;;;;;24.17;14.63;;;;;;;20.89;73.95;99108.78;5113048;28;20044;-73
2021/07/18 00:42:35;;;;;;;25.42;14.30;;;;;;;20.88;74.34;99107.91;5113034;28;20173;-78
2021/07/18 00:45:03;;;;;;;29.40;14.03;;;;;;;20.89;74.25;99106.09;5111411;28;21796;-76
2021/07/18 00:47:30;;;;;;;28.83;14.43;;;;;;;20.88;74.17;99102.53;5112414;28;21023;-74
2021/07/18 00:50:06;;;;;;;24.65;14.25;;;;;;;20.90;73.90;99108.56;5111604;28;20039;-74
2021/07/18 00:52:31;;;;;;;25.42;14.80;;;;;;;20.89;74.17;99106.09;5113202;28;20043;-77
2021/07/18 00:54:57;;;;;;;22.70;14.05;;;;;;;20.87;74.14;99106.25;5112633;28;20039;-76
2021/07/18 00:57:23;;;;;;;26.13;13.70;;;;;;;20.84;74.01;99115.56;5112804;28;20039;-75
2021/07/18 00:59:50;;;;;;;26.50;14.70;;;;;;;20.80;74.01;99108.94;5095387;28;20446;-77
2021/07/18 01:02:16;;;;;;;23.60;13.90;;;;;;;20.80;74.16;99114.31;5111866;28;20051;-77
2021/07/18 01:04:42;;;;;;;29.63;13.48;;;;;;;20.77;74.16;99120.09;5113078;28;20039;-74
2021/07/18 01:07:09;;;;;;;24.17;13.77;;;;;;;20.77;74.00;99119.25;5095085;28;20565;-76
2021/07/18 01:09:35;;;;;;;25.98;14.50;;;;;;;20.75;74.19;99111.38;5112650;28;20286;-75
2021/07/18 01:12:01;;;;;;;25.42;14.27;;;;;;;20.75;74.25;99114.06;5111837;28;20134;-74
2021/07/18 01:14:27;;;;;;;24.20;13.90;;;;;;;20.74;74.14;99115.09;5112049;28;20048;-73
2021/07/18 01:16:53;;;;;;;31.45;14.07;;;;;;;20.75;74.12;99116.75;5112780;28;20449;-75
2021/07/18 01:19:20;;;;;;;26.58;13.63;;;;;;;20.72;74.23;99122.50;5110952;28;20128;-73
2021/07/18 01:21:52;;;;;;;25.42;14.45;;;;;;;20.65;74.21;99114.41;5112054;28;20089;-76
2021/07/18 01:24:18;;;;;;;28.08;14.82;;;;;;;20.58;74.22;99115.41;5112644;28;20070;-77
2021/07/18 01:26:44;;;;;;;23.63;14.48;;;;;;;20.52;74.57;99117.84;5113107;28;20067;-78
2021/07/18 01:29:10;;;;;;;25.30;14.50;;;;;;;20.50;74.72;99113.69;5093418;28;20116;-75
2021/07/18 01:31:36;;;;;;;25.00;14.20;;;;;;;20.48;75.05;99116.56;5077623;28;20434;-76
2021/07/18 01:34:02;;;;;;;27.20;15.02;;;;;;;20.51;74.86;99110.81;5110895;28;20416;-75
2021/07/18 01:36:28;;;;;;;27.27;14.35;;;;;;;20.55;75.25;99115.78;5111755;28;20043;-73
2021/07/18 01:38:53;;;;;;;29.17;14.90;;;;;;;20.57;74.90;99117.22;5112657;28;20511;-76
2021/07/18 01:41:19;;;;;;;28.42;14.27;;;;;;;20.59;74.91;99111.69;5112542;28;20511;-74
2021/07/18 01:43:45;;;;;;;27.08;14.50;;;;;;;20.60;74.89;99108.78;5112222;28;20044;-77
2021/07/18 01:46:10;;;;;;;28.75;14.85;;;;;;;20.63;74.76;99118.31;5093382;28;20043;-77
2021/07/18 01:48:36;;;;;;;28.98;14.63;;;;;;;20.64;74.72;99110.03;5112308;28;20048;-73
2021/07/18 01:51:02;;;;;;;26.27;14.32;;;;;;;20.70;74.39;99111.13;5094539;28;20044;-78
2021/07/18 01:53:28;;;;;;;28.38;14.07;;;;;;;20.73;74.15;99115.31;5112228;28;20048;-73
2021/07/18 01:55:54;;;;;;;28.80;14.63;;;;;;;20.77;73.83;99113.88;5112079;28;20051;-74
2021/07/18 01:58:29;;;;;;;27.92;14.40;;;;;;;20.76;73.86;99123.81;5112584;28;20047;-74
2021/07/18 02:00:56;;;;;;;21.55;13.88;;;;;;;20.77;73.62;99122.78;5108277;28;20035;-74
2021/07/18 02:03:22;;;;;;;22.58;13.75;;;;;;;20.78;73.61;99118.22;5111416;28;20108;-71
2021/07/18 02:05:48;;;;;;;26.83;13.60;;;;;;;20.80;73.58;99113.47;5111547;28;20043;-82
2021/07/18 02:08:14;;;;;;;27.73;14.23;;;;;;;20.82;73.50;99127.53;5093766;28;20092;-74
2021/07/18 02:10:40;;;;;;;25.77;14.43;;;;;;;20.81;73.34;99132.09;5111986;28;20100;-73
2021/07/18 02:13:06;;;;;;;24.98;13.90;;;;;;;20.81;73.49;99132.09;5110501;28;20079;-75
2021/07/18 02:15:32;;;;;;;26.75;14.38;;;;;;;20.82;73.62;99128.38;5112111;28;20043;-74
2021/07/18 02:17:58;;;;;;;23.05;13.70;;;;;;;20.85;73.42;99125.28;5112013;28;20039;-73
2021/07/18 02:20:23;;;;;;;22.90;14.07;;;;;;;20.89;73.43;99127.59;5094103;28;20464;-73
2021/07/18 02:22:52;;;;;;;25.92;13.35;;;;;;;20.89;73.34;99127.59;5111497;28;20539;-74
2021/07/18 02:25:21;;;;;;;27.17;13.32;;;;;;;20.88;73.15;99129.44;5111121;28;20043;-73
2021/07/18 02:27:47;;;;;;;26.83;14.20;;;;;;;20.85;73.38;99129.84;5112136;28;20039;-72
2021/07/18 02:30:17;;;;;;;26.25;14.15;;;;;;;20.83;73.64;99124.63;5112015;28;20526;-72
2021/07/18 02:32:43;;;;;;;27.35;14.35;;;;;;;20.87;73.78;99129.63;5112211;28;20039;-73
2021/07/18 02:35:11;;;;;;;25.88;14.63;;;;;;;20.91;73.62;99126.34;5104343;28;20524;-73
2021/07/18 02:37:36;;;;;;;27.90;14.50;;;;;;;20.94;73.51;99120.56;5094946;28;20042;-74
2021/07/18 02:40:04;;;;;;;31.33;15.57;;;;;;;21.00;73.42;99127.03;5111912;28;20156;-76
2021/07/18 02:42:30;;;;;;;27.00;14.70;;;;;;;21.01;73.41;99123.31;5112117;28;20044;-73
2021/07/18 02:44:56;;;;;;;31.70;15.55;;;;;;;21.10;73.40;99123.97;5110864;28;20091;-73
2021/07/18 02:47:22;;;;;;;28.90;15.32;;;;;;;21.19;73.33;99124.63;5111481;28;20075;-75
2021/07/18 02:49:48;;;;;;;32.45;17.70;;;;;;;21.23;73.01;99128.56;5111995;28;20043;-75
2021/07/18 02:52:14;;;;;;;31.55;16.17;;;;;;;21.29;72.82;99130.44;5111073;28;20039;-79
2021/07/18 02:54:40;;;;;;;30.77;17.55;;;;;;;21.34;72.36;99136.84;5111887;28;20122;-73
2021/07/18 02:57:06;;;;;;;31.55;17.50;;;;;;;21.41;72.57;99139.59;5111059;28;20192;-78
2021/07/18 02:59:31;;;;;;;35.80;19.67;;;;;;;21.49;72.31;99139.38;5093324;28;20511;-74
2021/07/18 03:01:59;;;;;;;33.38;19.23;;;;;;;21.59;71.79;99143.59;5111410;28;20480;-76
2021/07/18 03:04:26;;;;;;;33.47;19.08;;;;;;;21.69;71.69;99149.41;5093464;28;20058;-75
2021/07/18 03:06:53;;;;;;;38.03;18.63;;;;;;;21.79;71.36;99139.09;5093060;28;20043;-73
2021/07/18 03:09:23;;;;;;;35.40;19.20;;;;;;;21.88;70.79;99142.41;5110408;28;20126;-74
2021/07/18 03:11:49;;;;;;;34.72;17.95;;;;;;;21.98;70.89;99142.81;5092966;28;20070;-75
2021/07/18 03:14:15;;;;;;;34.95;18.88;;;;;;;22.07;70.26;99146.16;5113681;28;20484;-76
2021/07/18 03:16:41;;;;;;;37.70;19.33;;;;;;;22.17;70.30;99143.03;5111730;28;20075;-76
2021/07/18 03:19:06;;;;;;;40.45;18.50;;;;;;;22.27;70.50;99145.31;5110836;28;20050;-76
2021/07/18 03:21:34;;;;;;;38.00;18.65;;;;;;;22.35;69.83;99146.97;5110679;28;20036;-74
2021/07/18 03:24:03;;;;;;;36.83;19.65;;;;;;;22.40;69.94;99139.94;5111758;28;20036;-73
2021/07/18 03:26:29;;;;;;;40.88;20.02;;;;;;;22.43;69.84;99133.28;5115506;28;20134;-76
2021/07/18 03:28:55;;;;;;;46.55;19.77;;;;;;;22.45;70.10;99142.84;5097051;28;20123;-76
2021/07/18 03:31:21;;;;;;;41.72;18.90;;;;;;;22.51;69.88;99145.75;5113724;28;20047;-76
2021/07/18 03:33:47;;;;;;;36.72;17.85;;;;;;;22.57;69.47;99139.53;5114351;28;20484;-79
2021/07/18 03:36:13;;;;;;;37.92;17.52;;;;;;;22.65;68.95;99146.56;5115095;28;20040;-78
2021/07/18 03:38:39;;;;;;;37.50;18.27;;;;;;;22.76;68.98;99144.00;5115310;28;20040;-78
2021/07/18 03:41:05;;;;;;;34.85;16.85;;;;;;;22.89;68.32;99150.41;5114255;28;20066;-81
2021/07/18 03:43:32;;;;;;;31.50;16.85;;;;;;;23.01;68.40;99148.72;5063445;28;20032;-75
2021/07/18 03:45:57;;;;;;;34.63;16.43;;;;;;;23.14;67.09;99138.94;5095551;28;20126;-74
2021/07/18 03:48:23;;;;;;;36.35;17.80;;;;;;;23.26;67.22;99142.63;5114563;28;20372;-76
2021/07/18 03:50:49;;;;;;;34.92;17.63;;;;;;;23.39;67.13;99137.19;5114385;28;20496;-73
2021/07/18 03:53:16;;;;;;;32.47;16.88;;;;;;;23.50;66.87;99145.63;5114746;28;20100;-78
2021/07/18 03:55:43;;;;;;;35.90;17.13;;;;;;;23.60;66.17;99148.69;5114628;28;20404;-75
2021/07/18 03:58:09;;;;;;;30.10;17.17;;;;;;;23.73;66.15;99143.22;5096439;28;20036;-75
2021/07/18 04:00:35;;;;;;;29.90;15.07;;;;;;;23.88;64.92;99145.59;5113697;28;20039;-75
2021/07/18 04:03:00;;;;;;;25.20;14.95;;;;;;;23.99;64.04;99141.41;5113910;28;20028;-75
2021/07/18 04:05:26;;;;;;;26.13;15.07;;;;;;;24.15;63.43;99144.59;5114500;28;20039;-76
2021/07/18 04:07:52;;;;;;;30.92;15.15;;;;;;;24.33;62.93;99147.34;5114244;28;20059;-78
2021/07/18 04:10:18;;;;;;;24.15;14.57;;;;;;;25.09;60.86;99143.72;5114170;28;20053;-73
2021/07/18 04:12:44;;;;;;;32.08;15.70;;;;;;;26.74;56.22;99137.91;5113528;28;20499;-76
2021/07/18 04:15:11;;;;;;;24.42;13.85;;;;;;;28.16;51.94;99132.97;5113957;28;20040;-77
2021/07/18 04:17:37;;;;;;;26.35;12.88;;;;;;;29.00;48.68;99128.50;5113844;28;20043;-75
2021/07/18 04:20:04;;;;;;;22.17;12.55;;;;;;;29.78;46.46;99130.94;5113967;28;20035;-74
2021/07/18 04:22:30;;;;;;;20.35;12.45;;;;;;;30.47;44.32;99126.59;5113913;28;20042;-75
2021/07/18 04:24:56;;;;;;;22.73;12.02;;;;;;;31.16;41.30;99123.19;5113045;28;20063;-75
2021/07/18 04:27:22;;;;;;;26.75;11.90;;;;;;;31.77;39.95;99128.78;5113950;28;20031;-75
2021/07/18 04:29:47;;;;;;;22.83;10.98;;;;;;;32.65;38.96;99125.97;5114192;28;20039;-76
2021/07/18 04:32:13;;;;;;;22.33;11.50;;;;;;;33.65;37.34;99120.59;5094541;28;20035;-77
2021/07/18 04:34:42;;;;;;;26.30;12.40;;;;;;;34.06;34.65;99121.38;5113531;28;20039;-76
2021/07/18 04:37:12;;;;;;;22.58;13.30;;;;;;;34.13;33.54;99124.63;5095283;28;20051;-78
2021/07/18 04:39:39;;;;;;;23.00;12.98;;;;;;;34.42;32.39;99127.41;5114223;28;20071;-74
2021/07/18 04:42:04;;;;;;;;;;;;;;;34.33;32.57;99123.59;5114671;28;20048;-75
2021/07/18 04:44:31;;;;;;;18.65;12.68;;;;;;;34.69;32.06;99122.44;5114223;28;19926;-75
2021/07/18 04:46:57;;;;;;;17.92;10.57;;;;;;;34.99;31.01;99121.25;5078779;28;20047;-77
2021/07/18 04:49:24;;;;;;;22.00;10.75;;;;;;;35.14;30.48;99123.81;5114093;28;20152;-77
2021/07/18 04:51:50;;;;;;;22.48;10.55;;;;;;;35.50;29.74;99121.72;5112967;28;20572;-82
2021/07/18 04:54:17;;;;;;;29.75;11.57;;;;;;;35.98;28.78;99134.44;5113077;28;20096;-76
2021/07/18 04:56:43;;;;;;;19.98;9.13;;;;;;;36.10;27.79;99124.63;5113853;28;20393;-79
2021/07/18 04:59:09;;;;;;;16.05;9.80;;;;;;;36.10;27.10;99130.13;5095365;28;20102;-74
2021/07/18 05:01:35;;;;;;;20.90;9.37;;;;;;;36.34;27.09;99125.56;5110795;28;20092;-76
2021/07/18 05:04:00;;;;;;;21.73;9.65;;;;;;;36.98;25.94;99135.94;5111440;28;20035;-75
2021/07/18 05:06:26;;;;;;;14.70;9.35;;;;;;;36.89;26.22;99127.59;5113469;28;20459;-78
2021/07/18 05:08:52;;;;;;;14.43;9.20;;;;;;;37.41;24.72;99116.25;5113667;28;20051;-80
2021/07/18 05:11:20;;;;;;;13.67;8.50;;;;;;;37.47;24.10;99120.53;5113389;28;20126;-77
2021/07/18 05:13:48;;;;;;;17.17;8.93;;;;;;;36.79;25.25;99123.06;5110863;28;20043;-77
2021/07/18 05:16:14;;;;;;;16.00;9.40;;;;;;;37.74;24.65;99123.50;5093183;28;20503;-76
2021/07/18 05:18:39;;;;;;;17.33;9.75;;;;;;;38.08;24.51;99117.41;5111675;28;20077;-79
2021/07/18 05:21:06;;;;;;;15.27;9.40;;;;;;;38.60;23.91;99119.63;5111870;28;20099;-71
2021/07/18 05:23:32;;;;;;;18.58;9.48;;;;;;;38.86;23.23;99113.41;5093238;28;20075;-74
2021/07/18 05:25:57;;;;;;;16.33;9.60;;;;;;;38.63;23.73;99120.94;5112373;28;20844;-73
2021/07/18 05:28:23;;;;;;;20.08;10.55;;;;;;;37.88;24.61;99116.00;5111628;28;20052;-74
2021/07/18 05:30:49;;;;;;;19.75;9.32;;;;;;;37.92;24.21;99114.22;5112159;28;20077;-72
2021/07/18 05:33:15;;;;;;;14.43;9.57;;;;;;;38.56;24.08;99115.06;5111876;28;20122;-72
2021/07/18 05:35:41;;;;;;;18.48;9.38;;;;;;;39.38;23.44;99107.16;5109623;28;20036;-75
2021/07/18 05:38:07;;;;;;;18.65;10.75;;;;;;;39.16;22.59;99108.88;5110658;28;20046;-76
2021/07/18 05:40:33;;;;;;;21.75;9.95;;;;;;;38.85;23.34;99117.31;5104679;28;20050;-73
2021/07/18 05:42:59;;;;;;;17.67;12.75;;;;;;;39.54;22.38;99120.50;5108317;28;20183;-72
2021/07/18 05:45:25;;;;;;;20.10;10.07;;;;;;;39.38;22.28;99118.22;5090816;28;20123;-75
2021/07/18 05:47:51;;;;;;;19.75;9.43;;;;;;;39.31;21.57;99117.91;5106494;28;20036;-73
2021/07/18 05:50:17;;;;;;;16.25;9.65;;;;;;;39.84;23.04;99123.44;5106027;28;20817;-76
2021/07/18 05:52:43;;;;;;;;;;;;;;;40.14;21.86;99115.25;5110391;28;20043;-74
2021/07/18 05:55:10;;;;;;;17.65;10.15;;;;;;;39.92;21.95;99111.53;5109782;28;19916;-74
2021/07/18 05:57:36;;;;;;;17.98;10.25;;;;;;;40.16;21.15;99112.97;5110737;28;20043;-76
2021/07/18 06:00:05;;;;;;;21.20;10.95;;;;;;;40.43;20.84;99106.19;5110034;28;20031;-77
2021/07/18 06:02:36;;;;;;;24.67;10.93;;;;;;;40.78;20.96;99111.56;5095858;28;20043;-76
2021/07/18 06:05:03;;;;;;;15.60;9.82;;;;;;;40.74;20.16;99108.66;5110515;28;20103;-73
2021/07/18 06:07:28;;;;;;;16.58;9.57;;;;;;;40.01;21.16;99114.28;5089701;28;20036;-75
2021/07/18 06:09:54;;;;;;;;;;;;;;;39.92;21.22;99111.53;5071419;28;20078;-74
2021/07/18 06:12:20;;;;;;;21.15;10.20;;;;;;;40.28;20.71;99110.31;5090117;28;20015;-75
2021/07/18 06:14:46;;;;;;;16.13;10.05;;;;;;;40.02;20.74;99105.63;5072859;28;20040;-76
2021/07/18 06:17:12;;;;;;;20.10;10.77;;;;;;;39.69;21.79;99103.41;5090948;28;20040;-77
2021/07/18 06:19:40;;;;;;;18.90;9.65;;;;;;;40.21;20.98;99116.34;5089478;28;20568;-76
2021/07/18 06:22:06;;;;;;;12.43;8.32;;;;;;;40.23;19.75;99102.19;5089235;28;20131;-75
2021/07/18 06:24:33;;;;;;;14.63;8.68;;;;;;;40.14;19.55;99109.69;5090749;28;20051;-75
2021/07/18 06:26:59;;;;;;;13.60;9.48;;;;;;;40.59;19.42;99098.16;5091083;28;20086;-75
2021/07/18 06:29:25;;;;;;;14.85;9.43;;;;;;;40.15;19.60;99105.78;5092056;28;20055;-77
2021/07/18 06:31:50;;;;;;;;;;;;;;;39.71;19.90;99101.13;5093187;28;20035;-76
2021/07/18 06:34:16;;;;;;;14.45;9.45;;;;;;;40.17;20.45;99097.97;5084684;28;19927;-75
2021/07/18 06:36:41;;;;;;;;;;;;;;;40.86;19.78;99096.03;5079045;28;20048;-75
2021/07/18 06:39:07;;;;;;;;;;;;;;;41.06;19.13;99089.72;5089798;28;19955;-80
2021/07/18 06:41:33;;;;;;;17.33;9.95;;;;;;;40.56;20.04;99093.25;5091768;28;20010;-78
2021/07/18 06:43:59;;;;;;;;;;;;;;;40.28;19.78;99099.22;5081861;28;20049;-74
2021/07/18 06:46:25;;;;;;;13.80;9.68;;;;;;;40.70;20.18;99093.84;5080082;28;19927;-76
2021/07/18 06:48:51;;;;;;;21.88;9.73;;;;;;;41.07;19.05;99096.06;5089990;28;20050;-76
2021/07/18 06:51:16;;;;;;;;;;;;;;;40.68;19.46;99090.59;5091156;28;20036;-74
2021/07/18 06:53:42;;;;;;;11.07;8.88;;;;;;;40.38;19.54;99098.84;5090050;28;19920;-79
2021/07/18 06:56:08;;;;;;;13.23;8.98;;;;;;;40.08;19.73;99096.00;5090257;28;20060;-79
2021/07/18 06:58:33;;;;;;;;;;;;;;;39.52;20.38;99101.44;5091285;28;20059;-79
2021/07/18 07:00:59;;;;;;;13.05;9.85;;;;;;;39.39;20.77;99096.88;5096353;28;19920;-77
2021/07/18 07:03:25;;;;;;;13.05;10.38;;;;;;;39.28;21.37;99096.38;5090789;28;20128;-77
2021/07/18 07:05:50;;;;;;;18.00;9.98;;;;;;;39.56;20.78;99101.63;5075757;28;20070;-78
2021/07/18 07:08:16;;;;;;;15.98;9.88;;;;;;;40.23;20.27;99096.66;5084542;28;20072;-77
2021/07/18 07:10:42;;;;;;;17.10;11.00;;;;;;;40.30;20.50;99091.38;5113538;28;20066;-80
2021/07/18 07:13:08;;;;;;;14.95;9.80;;;;;;;40.87;20.34;99086.56;5116244;28;20048;-78
2021/07/18 07:15:33;;;;;;;;;;;;;;;41.21;20.40;99081.91;5115310;28;20499;-79
2021/07/18 07:18:00;;;;;;;13.95;10.27;;;;;;;41.91;18.66;99086.91;5112763;28;20079;-77
2021/07/18 07:20:28;;;;;;;14.07;10.05;;;;;;;42.57;18.38;99082.34;5100519;28;20050;-78
2021/07/18 07:22:54;;;;;;;17.10;10.85;;;;;;;41.68;18.38;99092.78;5093831;28;20043;-78
2021/07/18 07:25:20;;;;;;;15.65;10.70;;;;;;;41.08;19.08;99092.94;5095790;28;20121;-74
2021/07/18 07:27:47;;;;;;;19.13;11.00;;;;;;;41.65;18.96;99093.50;5106135;28;20047;-77
2021/07/18 07:30:14;;;;;;;18.00;10.57;;;;;;;41.43;18.28;99091.91;5095465;28;20047;-81
2021/07/18 07:32:40;;;;;;;18.02;10.38;;;;;;;40.09;19.85;99094.84;5094698;28;20034;-79
2021/07/18 07:35:08;;;;;;;16.92;10.85;;;;;;;40.73;20.13;99084.84;5099658;28;20052;-77
2021/07/18 07:37:35;;;;;;;17.75;12.85;;;;;;;41.21;19.10;99079.97;5077123;28;20494;-77
2021/07/18 07:40:04;;;;;;;21.80;12.30;;;;;;;42.07;18.89;99086.22;5089981;28;20177;-77
2021/07/18 07:42:30;;;;;;;17.13;11.02;;;;;;;41.01;19.36;99084.34;5094884;28;20044;-76
2021/07/18 07:44:56;;;;;;;19.52;11.07;;;;;;;41.78;18.55;99079.66;5105391;28;20040;-78
2021/07/18 07:47:22;;;;;;;16.75;12.10;;;;;;;42.44;18.07;99080.72;5113978;28;20039;-79
2021/07/18 07:49:48;;;;;;;16.95;11.60;;;;;;;42.55;17.94;99094.94;5112442;28;20039;-77
2021/07/18 07:52:14;;;;;;;15.73;11.20;;;;;;;42.44;17.96;99092.66;5112588;28;20039;-76
2021/07/18 07:54:40;;;;;;;18.92;12.27;;;;;;;42.37;17.82;99086.03;5114010;28;20043;-79
2021/07/18 07:57:07;;;;;;;21.15;13.40;;;;;;;42.42;18.13;99080.25;5081299;28;20042;-77
2021/07/18 07:59:33;;;;;;;19.98;12.13;;;;;;;42.21;17.60;99083.94;5109966;28;20111;-74
2021/07/18 08:01:59;;;;;;;21.45;11.48;;;;;;;41.82;18.08;99081.38;5096510;28;20044;-75
2021/07/18 08:04:25;;;;;;;15.73;11.68;;;;;;;42.64;17.94;99081.75;5114879;28;20039;-74
2021/07/18 08:06:51;;;;;;;15.63;10.93;;;;;;;43.07;17.19;99076.72;5096669;28;20555;-75
2021/07/18 08:09:18;;;;;;;20.17;13.38;;;;;;;43.19;17.18;99084.25;5114588;28;20134;-76
2021/07/18 08:11:45;;;;;;;21.00;14.00;;;;;;;42.73;17.18;99076.09;5113475;28;20096;-76
2021/07/18 08:14:11;;;;;;;15.02;11.15;;;;;;;42.20;18.01;99079.53;5114514;28;20132;-77
2021/07/18 08:16:36;;;;;;;14.50;11.40;;;;;;;42.84;17.40;99078.03;5113984;28;20637;-73
2021/07/18 08:19:03;;;;;;;16.67;12.73;;;;;;;43.28;17.38;99071.81;5114479;28;20040;-77
2021/07/18 08:21:28;;;;;;;17.42;12.07;;;;;;;43.76;16.91;99071.16;5114580;28;20038;-75
2021/07/18 08:23:54;;;;;;;17.90;11.80;;;;;;;43.02;17.08;99074.19;5114296;28;20051;-77
2021/07/18 08:26:21;;;;;;;19.80;13.57;;;;;;;42.67;17.60;99070.75;5114237;28;20054;-77
2021/07/18 08:28:47;;;;;;;21.08;13.07;;;;;;;42.59;17.80;99063.31;5114536;28;20143;-73
2021/07/18 08:31:13;;;;;;;22.05;13.93;;;;;;;41.86;18.02;99071.25;5113746;28;20563;-74
2021/07/18 08:33:39;;;;;;;20.52;13.00;;;;;;;41.74;18.48;99071.19;5112890;28;20050;-74
2021/07/18 08:36:05;;;;;;;17.67;11.50;;;;;;;41.15;18.74;99063.84;5114048;28;20043;-74
2021/07/18 08:38:31;;;;;;;19.85;12.43;;;;;;;41.52;18.83;99066.81;5114098;28;20568;-73
2021/07/18 08:40:57;;;;;;;21.08;12.63;;;;;;;41.69;18.84;99060.28;5095597;28;20044;-73
2021/07/18 08:43:24;;;;;;;19.33;12.18;;;;;;;42.17;18.24;99057.97;5092613;28;20048;-74
2021/07/18 08:45:50;;;;;;;18.38;11.80;;;;;;;42.18;18.45;99062.38;5093142;28;20051;-73
2021/07/18 08:48:16;;;;;;;18.35;12.43;;;;;;;42.22;18.01;99054.16;5092888;28;20097;-74
2021/07/18 08:50:43;;;;;;;16.23;12.02;;;;;;;41.64;18.38;99052.97;5092930;28;20043;-73
2021/07/18 08:53:08;;;;;;;18.15;12.48;;;;;;;41.69;18.17;99049.97;5092683;28;20044;-73
2021/07/18 08:55:38;;;;;;;28.48;12.95;;;;;;;40.41;19.88;99059.38;5093934;28;20047;-81
2021/07/18 08:58:04;;;;;;;17.50;12.60;;;;;;;40.36;19.71;99048.47;5061273;28;20533;-80
2021/07/18 09:00:30;;;;;;;17.83;12.20;;;;;;;41.16;19.10;99046.84;5062056;28;20032;-81
2021/07/18 09:02:56;;;;;;;16.40;11.77;;;;;;;41.79;18.75;99045.16;5045057;28;20040;-81
2021/07/18 09:05:22;;;;;;;;;;;;;;;41.01;19.21;99042.72;5044966;28;20441;-82
2021/07/18 09:07:51;;;;;;;18.10;12.63;;;;;;;41.24;19.24;99042.41;5061286;28;19916;-82
2021/07/18 09:10:28;;;;;;;19.67;12.52;;;;;;;41.77;18.47;99039.13;5036653;28;20557;-82
2021/07/18 09:13:09;;;;;;;18.25;12.52;;;;;;;41.65;18.30;99043.50;5003262;28;20087;-82
2021/07/18 09:15:49;;;;;;;17.27;13.38;;;;;;;41.59;18.34;99039.31;5052385;28;20514;-81
2021/07/18 09:18:19;;;;;;;20.25;13.07;;;;;;;41.51;18.55;99037.44;5018652;28;20041;-83
2021/07/18 09:20:48;;;;;;;18.73;13.20;;;;;;;42.07;18.07;99031.44;4985843;28;20103;-79
2021/07/18 09:23:19;;;;;;;19.75;12.52;;;;;;;41.00;18.91;99030.03;5034417;28;20041;-70
2021/07/18 09:25:46;;;;;;;20.80;13.40;;;;;;;38.83;21.34;99037.44;5033753;28;20056;-72
2021/07/18 09:28:13;;;;;;;18.05;13.20;;;;;;;37.68;22.46;99037.25;5049765;28;20037;-75
2021/07/18 09:30:39;;;;;;;21.75;13.48;;;;;;;38.25;22.29;99028.31;5049780;28;20562;-71
2021/07/18 09:33:05;;;;;;;21.20;12.85;;;;;;;37.87;22.33;99028.78;5049535;28;20045;-71
2021/07/18 09:35:30;;;;;;;20.85;13.73;;;;;;;37.98;22.85;99029.31;5033093;28;20103;-72
2021/07/18 09:37:56;;;;;;;17.83;13.10;;;;;;;38.65;22.03;99024.69;5049869;28;20509;-73
2021/07/18 09:40:23;;;;;;;20.13;12.38;;;;;;;38.63;22.48;99035.25;5054904;28;20461;-72
2021/07/18 09:42:51;;;;;;;19.45;12.40;;;;;;;39.36;21.30;99029.19;5092317;28;20040;-72
2021/07/18 09:45:22;;;;;;;21.48;12.50;;;;;;;39.69;21.38;99027.84;5073882;28;20048;-73
2021/07/18 09:47:52;;;;;;;18.55;12.55;;;;;;;38.93;21.80;99029.97;5074636;28;20044;-72
2021/07/18 09:50:19;;;;;;;22.10;11.82;;;;;;;37.19;23.09;99015.78;5091895;28;20076;-72
2021/07/18 09:52:48;;;;;;;19.13;11.73;;;;;;;35.79;25.50;99020.53;5092261;28;20054;-73
2021/07/18 09:55:21;;;;;;;23.55;12.57;;;;;;;34.86;26.67;99020.28;5091579;28;20039;-72
2021/07/18 09:57:51;;;;;;;18.15;11.75;;;;;;;34.59;27.24;99021.75;5091783;28;20044;-72
2021/07/18 10:00:18;;;;;;;21.75;11.98;;;;;;;34.76;26.93;99015.75;5091582;28;20451;-72
2021/07/18 10:02:45;;;;;;;17.95;12.05;;;;;;;35.23;26.28;99014.00;5092086;28;20097;-71
2021/07/18 10:05:43;;;;;;;18.55;12.15;;;;;;;34.86;27.08;99015.66;5092104;28;20051;-72
2021/07/18 10:08:10;;;;;;;21.80;12.50;;;;;;;34.40;27.56;99006.03;5028859;28;20502;-75
2021/07/18 10:10:37;;;;;;;16.65;12.38;;;;;;;34.41;27.68;98998.59;5029233;28;20046;-74
2021/07/18 10:13:04;;;;;;;18.63;12.77;;;;;;;35.35;26.96;98999.78;5029636;28;20470;-74
2021/07/18 10:15:31;;;;;;;21.13;12.10;;;;;;;35.92;26.31;98996.91;5012525;28;20124;-73
2021/07/18 10:17:56;;;;;;;;;;;;;;;35.64;25.87;98990.50;5029550;28;20050;-73
2021/07/18 10:20:23;;;;;;;20.77;11.77;;;;;;;35.05;27.10;98990.09;5028421;28;19971;-71
2021/07/18 10:22:52;;;;;;;19.90;12.10;;;;;;;34.66;27.38;98989.25;5028599;28;20076;-71
2021/07/18 10:25:18;;;;;;;16.10;11.75;;;;;;;35.15;27.71;98978.94;5028909;28;20054;-74
2021/07/18 10:27:45;;;;;;;20.42;11.73;;;;;;;35.60;26.71;98968.31;5028851;28;20055;-73
2021/07/18 10:30:12;;;;;;;;;;;;;;;35.87;26.29;98966.75;5029446;28;20045;-72
2021/07/18 10:32:38;;;;;;;19.83;11.88;;;;;;;36.01;25.60;98965.94;5028954;28;19924;-74
2021/07/18 10:35:06;;;;;;;18.80;11.82;;;;;;;36.29;25.68;98961.25;5015173;28;20124;-72
2021/07/18 10:37:39;;;;;;;16.98;11.75;;;;;;;36.31;25.78;98958.97;5032473;28;20059;-71
2021/07/18 10:40:11;;;;;;;18.23;11.60;;;;;;;36.33;26.16;98958.69;5032997;28;20041;-73
2021/07/18 10:42:37;;;;;;;18.15;11.82;;;;;;;36.25;25.32;98957.47;5035453;28;20075;-71
2021/07/18 10:45:16;;;;;;;20.07;12.00;;;;;;;36.20;25.41;98952.88;5095435;28;20076;-73
2021/07/18 10:47:55;;;;;;;17.02;12.00;;;;;;;35.75;26.42;98949.88;5095613;28;20040;-72
2021/07/18 10:50:43;;;;;;;16.85;11.27;;;;;;;35.22;26.64;98943.63;5095320;28;20051;-71
2021/07/18 10:53:26;;;;;;;20.30;13.10;;;;;;;34.82;26.87;98940.41;5077014;28;20419;-73
2021/07/18 10:55:54;;;;;;;21.25;13.13;;;;;;;34.85;26.62;98942.53;5095713;28;20388;-73
2021/07/18 10:58:38;;;;;;;19.05;12.70;;;;;;;35.07;27.17;98938.38;5095248;28;20040;-73
2021/07/18 11:01:31;;;;;;;16.90;12.15;;;;;;;35.15;26.93;98938.53;5077450;28;20044;-72
2021/07/18 11:03:57;;;;;;;20.13;12.43;;;;;;;35.22;26.83;98929.88;5095613;28;20052;-72
2021/07/18 11:06:30;;;;;;;16.90;11.20;;;;;;;35.34;26.77;98926.63;5095220;28;20051;-73
2021/07/18 11:09:10;;;;;;;18.30;11.38;;;;;;;35.01;26.23;98934.91;5077173;28;20055;-72
2021/07/18 11:11:57;;;;;;;18.95;11.93;;;;;;;34.81;26.73;98939.56;5095572;28;20044;-75
2021/07/18 11:14:36;;;;;;;14.90;11.02;;;;;;;34.87;26.88;98934.00;5076525;28;20477;-71
2021/07/18 11:17:23;;;;;;;13.38;9.80;;;;;;;34.85;26.22;98928.78;5077097;28;20039;-71
2021/07/18 11:19:57;;;;;;;14.95;11.10;;;;;;;34.87;26.45;98926.59;5094697;28;20040;-73
2021/07/18 11:23:01;;;;;;;16.42;10.20;;;;;;;34.38;27.06;98923.13;5094832;28;20516;-72